createdAt,value
2017-06-27T00:02:56.192Z,0
2017-06-27T00:07:53.984Z,0
2017-06-27T00:12:49.236Z,0
2017-06-27T00:17:45.325Z,0
2017-06-27T00:22:43.237Z,0
2017-06-27T00:27:38.447Z,0
2017-06-27T00:32:34.092Z,0
2017-06-27T00:37:32.281Z,0
2017-06-27T00:42:27.583Z,0
2017-06-27T00:47:25.726Z,0
2017-06-27T00:52:20.786Z,0
2017-06-27T00:57:18.016Z,0
2017-06-27T01:02:14.457Z,0
2017-06-27T01:07:10.063Z,0
2017-06-27T01:12:07.885Z,0
2017-06-27T01:17:03.008Z,0
2017-06-27T01:21:59.017Z,0
2017-06-27T01:26:54.737Z,0
2017-06-27T01:31:50.329Z,0
2017-06-27T01:36:47.163Z,0
2017-06-27T01:41:45.260Z,0
2017-06-27T01:46:40.374Z,0
2017-06-27T01:51:37.470Z,0
2017-06-27T01:56:33.173Z,0
2017-06-27T02:01:30.003Z,0
2017-06-27T02:06:25.875Z,0
2017-06-27T02:11:21.688Z,0
2017-06-27T02:16:17.533Z,0
2017-06-27T02:21:13.212Z,0
2017-06-27T02:26:08.889Z,0
2017-06-27T02:31:06.845Z,4
2017-06-27T02:36:02.100Z,4
2017-06-27T02:40:58.188Z,8
2017-06-27T02:45:53.969Z,20
2017-06-27T02:50:49.770Z,28
2017-06-27T02:55:45.530Z,48
2017-06-27T03:00:42.350Z,80
2017-06-27T03:05:37.996Z,128
2017-06-27T03:10:34.990Z,192
2017-06-27T03:15:31.500Z,272
2017-06-27T03:20:27.100Z,380
2017-06-27T03:25:23.785Z,496
2017-06-27T03:30:20.647Z,612
2017-06-27T03:35:18.159Z,772
2017-06-27T03:40:13.078Z,884
2017-06-27T03:45:10.069Z,1064
2017-06-27T03:50:05.911Z,1352
2017-06-27T03:55:02.801Z,1548
2017-06-27T03:59:58.854Z,1540
2017-06-27T04:04:55.032Z,1644
2017-06-27T04:09:52.001Z,1692
2017-06-27T04:14:47.685Z,1772
2017-06-27T04:19:45.028Z,2124
2017-06-27T04:24:40.439Z,2328
2017-06-27T04:29:36.962Z,2508
2017-06-27T04:34:32.656Z,2816
2017-06-27T04:39:28.738Z,4112
2017-06-27T04:44:24.749Z,3160
2017-06-27T04:49:22.798Z,3320
2017-06-27T04:54:19.911Z,3552
2017-06-27T04:59:15.495Z,3704
2017-06-27T05:04:11.582Z,3908
2017-06-27T05:09:07.608Z,5736
2017-06-27T05:14:04.808Z,7720
2017-06-27T05:19:02.355Z,9628
2017-06-27T05:24:00.668Z,13332
2017-06-27T05:28:57.917Z,10816
2017-06-27T05:33:53.529Z,12732
2017-06-27T05:38:49.625Z,9112
2017-06-27T05:43:45.554Z,12356
2017-06-27T05:48:41.784Z,8844
2017-06-27T05:53:37.850Z,8300
2017-06-27T05:58:33.478Z,8504
2017-06-27T06:03:29.105Z,6940
2017-06-27T06:08:25.977Z,6356
2017-06-27T06:13:22.474Z,6800
2017-06-27T06:18:18.452Z,7184
2017-06-27T06:23:14.445Z,7512
2017-06-27T06:28:10.514Z,7788
2017-06-27T06:33:06.793Z,8228
2017-06-27T06:38:02.570Z,8580
2017-06-27T06:42:58.688Z,9804
2017-06-27T06:47:56.570Z,10520
2017-06-27T06:52:52.446Z,10340
2017-06-27T06:57:49.197Z,9240
2017-06-27T07:02:46.817Z,9068
2017-06-27T07:07:42.266Z,10400
2017-06-27T07:12:38.112Z,10288
2017-06-27T07:17:33.656Z,9024
2017-06-27T07:22:30.512Z,10128
2017-06-27T07:27:26.264Z,10288
2017-06-27T07:32:22.809Z,10948
2017-06-27T07:37:19.885Z,11352
2017-06-27T07:42:18.113Z,15036
2017-06-27T07:47:15.903Z,14144
2017-06-27T07:52:11.400Z,10876
2017-06-27T07:57:08.626Z,10252
2017-06-27T08:02:05.166Z,9704
2017-06-27T08:07:02.769Z,12208
2017-06-27T08:11:59.075Z,17760
2017-06-27T08:16:55.820Z,23680
2017-06-27T08:21:52.922Z,11988
2017-06-27T08:26:48.594Z,13916
2017-06-27T08:31:44.474Z,13528
2017-06-27T08:36:40.905Z,13840
2017-06-27T08:41:36.771Z,14396
2017-06-27T08:46:33.832Z,16896
2017-06-27T08:51:31.065Z,19968
2017-06-27T08:56:27.779Z,21760
2017-06-27T09:01:24.308Z,15768
2017-06-27T09:06:20.389Z,15396
2017-06-27T09:11:16.083Z,12928
2017-06-27T09:16:11.692Z,12768
2017-06-27T09:21:07.093Z,11020
2017-06-27T09:26:03.081Z,10692
2017-06-27T09:31:00.159Z,11456
2017-06-27T09:35:59.950Z,10664
2017-06-27T09:40:54.886Z,11372
2017-06-27T09:45:51.683Z,11320
2017-06-27T09:50:48.466Z,11264
2017-06-27T09:55:45.089Z,11972
2017-06-27T10:00:41.915Z,12348
2017-06-27T10:05:37.552Z,11480
2017-06-27T10:10:35.117Z,11524
2017-06-27T10:15:30.705Z,12268
2017-06-27T10:20:27.099Z,13864
2017-06-27T10:25:24.289Z,18336
2017-06-27T10:30:22.614Z,24000
2017-06-27T10:35:18.997Z,15388
2017-06-27T10:40:14.570Z,15444
2017-06-27T10:45:11.590Z,14312
2017-06-27T10:50:07.288Z,12292
2017-06-27T10:55:03.226Z,11972
2017-06-27T11:00:01.294Z,11668
2017-06-27T11:04:57.615Z,11564
2017-06-27T11:09:53.116Z,11132
2017-06-27T11:14:49.517Z,10932
2017-06-27T11:19:46.721Z,11256
2017-06-27T11:24:42.505Z,12644
2017-06-27T11:29:38.543Z,13296
2017-06-27T11:34:35.734Z,13648
2017-06-27T11:39:31.530Z,15056
2017-06-27T11:44:28.613Z,14260
2017-06-27T11:49:24.272Z,13208
2017-06-27T11:54:21.176Z,12200
2017-06-27T11:59:17.124Z,12800
2017-06-27T12:04:14.231Z,13588
2017-06-27T12:09:10.070Z,16128
2017-06-27T12:14:08.127Z,14296
2017-06-27T12:19:04.461Z,12824
2017-06-27T12:24:02.322Z,12076
2017-06-27T12:28:59.591Z,10208
2017-06-27T12:33:54.818Z,9944
2017-06-27T12:38:50.925Z,9268
2017-06-27T12:43:46.739Z,8220
2017-06-27T12:48:42.649Z,8076
2017-06-27T12:53:39.594Z,8044
2017-06-27T12:58:35.336Z,8356
2017-06-27T13:03:32.129Z,8060
2017-06-27T13:08:27.648Z,7504
2017-06-27T13:13:25.575Z,7004
2017-06-27T13:18:20.665Z,7284
2017-06-27T13:23:18.366Z,7532
2017-06-27T13:28:13.714Z,7052
2017-06-27T13:33:09.570Z,7048
2017-06-27T13:38:05.526Z,8016
2017-06-27T13:43:01.565Z,9492
2017-06-27T13:47:59.004Z,9840
2017-06-27T13:52:54.849Z,9544
2017-06-27T13:57:51.839Z,8844
2017-06-27T14:02:48.126Z,8524
2017-06-27T14:07:44.150Z,7204
2017-06-27T14:12:39.903Z,7060
2017-06-27T14:17:36.282Z,7096
2017-06-27T14:22:34.360Z,5988
2017-06-27T14:27:29.516Z,5544
2017-06-27T14:32:26.337Z,5892
2017-06-27T14:37:23.833Z,5528
2017-06-27T14:42:19.193Z,5132
2017-06-27T14:47:15.219Z,5788
2017-06-27T14:52:12.255Z,6292
2017-06-27T14:57:07.974Z,6720
2017-06-27T15:02:03.920Z,7196
2017-06-27T15:07:00.111Z,6396
2017-06-27T15:11:56.912Z,5600
2017-06-27T15:16:53.844Z,5484
2017-06-27T15:21:49.462Z,5884
2017-06-27T15:26:46.457Z,5056
2017-06-27T15:31:42.886Z,4456
2017-06-27T15:36:38.510Z,4140
2017-06-27T15:41:34.565Z,3492
2017-06-27T15:46:31.741Z,3016
2017-06-27T15:51:29.363Z,1868
2017-06-27T15:56:24.445Z,1644
2017-06-27T16:01:20.302Z,1876
2017-06-27T16:06:16.421Z,2296
2017-06-27T16:11:14.409Z,2452
2017-06-27T16:16:09.851Z,2424
2017-06-27T16:21:06.896Z,2032
2017-06-27T16:26:02.754Z,2072
2017-06-27T16:30:59.660Z,1992
2017-06-27T16:35:55.313Z,1708
2017-06-27T16:40:53.745Z,1340
2017-06-27T16:45:50.191Z,1160
2017-06-27T16:50:46.931Z,1200
2017-06-27T16:55:43.535Z,1304
2017-06-27T17:00:39.271Z,1620
2017-06-27T17:05:35.766Z,1636
2017-06-27T17:10:32.749Z,1696
2017-06-27T17:15:28.789Z,1496
2017-06-27T17:20:25.892Z,1640
2017-06-27T17:25:21.269Z,1064
2017-06-27T17:30:18.265Z,824
2017-06-27T17:35:14.913Z,884
2017-06-27T17:40:11.293Z,924
2017-06-27T17:45:08.297Z,788
2017-06-27T17:50:03.830Z,980
2017-06-27T17:54:59.727Z,1372
2017-06-27T17:59:56.665Z,1400
2017-06-27T18:04:52.392Z,1216
2017-06-27T18:09:50.894Z,852
2017-06-27T18:14:47.286Z,620
2017-06-27T18:19:44.261Z,492
2017-06-27T18:24:41.134Z,420
2017-06-27T18:29:37.688Z,412
2017-06-27T18:34:34.758Z,276
2017-06-27T18:39:31.461Z,204
2017-06-27T18:44:27.799Z,196
2017-06-27T18:49:23.833Z,188
2017-06-27T18:54:19.588Z,196
2017-06-27T18:59:15.433Z,248
2017-06-27T19:04:11.230Z,256
2017-06-27T19:09:07.962Z,180
2017-06-27T19:14:03.419Z,108
2017-06-27T19:19:00.947Z,76
2017-06-27T19:23:58.793Z,72
2017-06-27T19:28:55.140Z,64
2017-06-27T19:33:51.744Z,60
2017-06-27T19:38:47.284Z,64
2017-06-27T19:43:43.796Z,56
2017-06-27T19:48:39.720Z,48
2017-06-27T19:53:35.572Z,40
2017-06-27T19:58:31.452Z,32
2017-06-27T20:03:28.011Z,20
2017-06-27T20:08:23.569Z,12
2017-06-27T20:13:20.875Z,4
2017-06-27T20:18:16.287Z,4
2017-06-27T20:23:12.446Z,4
2017-06-27T20:28:08.520Z,0
2017-06-27T20:33:05.404Z,0
2017-06-27T20:38:01.423Z,0
2017-06-27T20:42:57.415Z,0
2017-06-27T20:47:53.217Z,0
2017-06-27T20:52:49.392Z,0
2017-06-27T20:57:46.259Z,0
2017-06-27T21:02:41.868Z,0
2017-06-27T21:07:38.656Z,0
2017-06-27T21:12:35.094Z,0
2017-06-27T21:17:32.170Z,0
2017-06-27T21:22:27.835Z,0
2017-06-27T21:27:24.522Z,0
2017-06-27T21:32:21.048Z,0
2017-06-27T21:37:16.609Z,0
2017-06-27T21:42:13.577Z,0
2017-06-27T21:47:09.146Z,0
2017-06-27T21:52:06.095Z,0
2017-06-27T21:57:02.701Z,0
2017-06-27T22:01:58.319Z,0
2017-06-27T22:06:55.694Z,0
2017-06-27T22:11:52.106Z,0
2017-06-27T22:16:49.039Z,0
2017-06-27T22:21:46.075Z,0
2017-06-27T22:26:42.800Z,0
2017-06-27T22:31:38.556Z,0
2017-06-27T22:36:34.530Z,0
2017-06-27T22:41:30.482Z,0
2017-06-27T22:46:27.364Z,0
2017-06-27T22:51:23.368Z,0
2017-06-27T22:56:20.543Z,0
2017-06-27T23:01:16.063Z,0
2017-06-27T23:06:12.152Z,0
2017-06-27T23:11:09.322Z,0
2017-06-27T23:16:04.980Z,0
2017-06-27T23:21:00.756Z,0
2017-06-27T23:25:57.655Z,0
2017-06-27T23:30:54.231Z,0
2017-06-27T23:35:51.183Z,0
2017-06-27T23:40:46.758Z,0
2017-06-27T23:45:42.628Z,0
2017-06-27T23:50:39.366Z,0
2017-06-27T23:55:36.902Z,0
